Time;durP1;ratioP1;P1;durP2;ratioP2;P2;SDS_P1;SDS_P2;PMS_P1;PMS_P2;Temp;Humidity;BMP_temperature;BMP_pressure;BME280_temperature;BME280_humidity;BME280_pressure;Samples;Min_cycle;Max_cycle;Signal;HPM_P1;HPM_P2
2022/11/02 00:03:28;;;;;;;6.85;1.60;;;;;;;11.60;46.63;100528.50;10438846;28;20229;-85
2022/11/02 00:08:50;;;;;;;9.43;1.40;;;;;;;11.71;46.28;100526.97;10482017;28;20222;-85
2022/11/02 00:14:12;;;;;;;7.32;1.40;;;;;;;10.75;48.16;100514.22;10461344;28;20196;-86
2022/11/02 00:19:34;;;;;;;8.43;1.13;;;;;;;11.70;46.60;100499.91;10468158;28;20490;-85
2022/11/02 00:24:56;;;;;;;7.43;1.63;;;;;;;11.34;47.52;100513.63;10462616;28;20269;-86
2022/11/02 00:30:18;;;;;;;8.30;1.60;;;;;;;11.68;47.06;100496.56;10480886;28;20207;-86
2022/11/02 00:35:41;;;;;;;8.60;1.43;;;;;;;11.72;46.79;100500.38;10489079;28;20244;-84
2022/11/02 00:41:03;;;;;;;8.93;1.15;;;;;;;11.91;46.30;100500.78;10524597;28;20202;-83
2022/11/02 00:46:25;;;;;;;5.17;1.20;;;;;;;11.31;48.77;100501.00;10511648;28;20277;-84
2022/11/02 00:51:47;;;;;;;5.80;0.90;;;;;;;10.85;50.39;100507.41;10519573;28;20260;-84
2022/11/02 00:57:10;;;;;;;7.57;1.10;;;;;;;11.31;50.41;100514.28;10510775;28;20190;-86
2022/11/02 01:02:33;;;;;;;7.03;0.90;;;;;;;11.54;50.36;100495.97;10518700;28;20203;-84
2022/11/02 01:07:56;;;;;;;8.60;1.37;;;;;;;11.39;50.18;100493.66;10521567;28;20223;-84
2022/11/02 01:13:18;;;;;;;8.20;1.20;;;;;;;11.20;50.58;100497.72;10486533;28;20204;-83
2022/11/02 01:18:40;;;;;;;7.57;1.30;;;;;;;11.37;50.13;100496.81;10514656;28;20203;-85
2022/11/02 01:24:02;;;;;;;5.50;1.42;;;;;;;11.33;49.94;100493.03;10507646;28;20206;-84
2022/11/02 01:29:24;;;;;;;8.90;1.10;;;;;;;11.37;49.53;100498.81;10518366;28;20214;-84
2022/11/02 01:34:47;;;;;;;8.77;1.30;;;;;;;11.49;49.45;100496.97;10527149;28;20252;-86
2022/11/02 01:40:09;;;;;;;10.90;1.17;;;;;;;11.21;50.39;100495.75;10487579;28;20195;-84
2022/11/02 01:45:32;;;;;;;7.35;1.30;;;;;;;11.27;49.66;100492.38;10515619;28;20218;-87
2022/11/02 01:50:56;;;;;;;9.70;2.03;;;;;;;11.41;49.60;100491.34;10539517;28;20194;-86
2022/11/02 01:56:22;;;;;;;10.07;1.38;;;;;;;11.61;48.70;100496.25;10502486;28;20232;-86
2022/11/02 02:01:30;;;;;;;5.90;1.17;;;;;;;11.22;49.48;100484.09;10472616;28;20229;-85
2022/11/02 02:06:54;;;;;;;9.75;1.83;;;;;;;11.30;49.73;100490.88;10538993;28;20222;-84
2022/11/02 02:12:16;;;;;;;7.70;1.43;;;;;;;11.02;50.28;100500.91;10530854;28;20619;-87
2022/11/02 02:17:43;;;;;;;7.88;1.45;;;;;;;11.57;48.88;100484.84;10471504;28;20210;-85
2022/11/02 02:23:10;;;;;;;5.40;1.17;;;;;;;11.30;49.64;100490.06;10496000;28;20256;-86
2022/11/02 02:28:48;;;;;;;7.57;1.20;;;;;;;11.79;48.26;100497.03;10477236;28;20222;-87
2022/11/02 02:34:26;;;;;;;7.20;1.20;;;;;;;11.98;47.74;100494.59;10485285;28;20249;-86
2022/11/02 02:40:05;;;;;;;8.07;1.37;;;;;;;11.83;48.23;100493.19;10498065;28;20198;-86
2022/11/02 02:45:39;;;;;;;5.57;1.30;;;;;;;11.54;48.82;100491.16;10498024;28;20295;-86
2022/11/02 02:51:09;;;;;;;5.90;1.38;;;;;;;11.38;49.27;100489.19;10480901;28;20240;-86
2022/11/02 02:56:38;;;;;;;7.27;1.27;;;;;;;11.06;49.66;100497.09;10476202;28;20264;-84
2022/11/02 03:01:46;;;;;;;6.22;1.30;;;;;;;11.58;48.70;100502.59;10506882;28;20195;-86
2022/11/02 03:07:11;;;;;;;6.77;1.70;;;;;;;11.25;49.86;100497.53;10514922;28;20222;-84
2022/11/02 03:12:40;;;;;;;6.47;1.10;;;;;;;11.30;49.71;100484.41;10498754;28;20198;-85
2022/11/02 03:18:25;;;;;;;4.45;0.90;;;;;;;11.13;49.66;100491.75;10495861;28;20195;-85
2022/11/02 03:23:59;;;;;;;5.10;0.90;;;;;;;10.88;50.34;100490.66;10508922;28;20261;-87
2022/11/02 03:29:53;;;;;;;9.80;1.67;;;;;;;11.09;49.92;100506.84;10516801;28;20347;-84
2022/11/02 03:35:39;;;;;;;5.93;1.10;;;;;;;11.27;49.74;100520.59;10462277;28;20257;-86
2022/11/02 03:41:03;;;;;;;6.20;1.67;;;;;;;10.84;50.71;100528.28;10472931;28;20199;-85
2022/11/02 03:46:26;;;;;;;8.27;1.50;;;;;;;10.76;51.23;100526.31;10471889;28;20570;-86
2022/11/02 03:51:50;;;;;;;5.10;1.23;;;;;;;11.06;49.91;100528.13;10474267;28;20233;-84
2022/11/02 03:57:18;;;;;;;9.23;1.53;;;;;;;10.91;50.26;100545.56;10493738;28;20678;-85
2022/11/02 04:02:45;;;;;;;4.93;1.17;;;;;;;11.13;49.47;100541.69;10485357;28;20207;-86
2022/11/02 04:08:20;;;;;;;6.17;1.37;;;;;;;11.24;49.05;100552.31;10496684;28;20271;-83
2022/11/02 04:19:26;;;;;;;6.90;1.95;;;;;;;10.90;50.04;100560.81;10484234;28;20260;-82
2022/11/02 04:30:48;;;;;;;7.97;1.37;;;;;;;10.77;50.24;100578.72;10503368;28;20214;-83
2022/11/02 04:36:13;;;;;;;5.90;1.50;;;;;;;11.60;48.69;100576.50;10484536;28;20253;-82
2022/11/02 04:41:41;;;;;;;10.00;1.00;;;;;;;11.11;49.73;100584.34;10484900;28;20199;-80
2022/11/02 04:47:11;;;;;;;4.07;1.10;;;;;;;10.67;50.41;100590.34;10475113;28;20223;-81
2022/11/02 04:52:34;;;;;;;8.13;1.27;;;;;;;10.42;50.79;100595.56;10481712;28;20273;-83
2022/11/02 04:57:56;;;;;;;6.43;1.20;;;;;;;10.18;51.49;100606.41;10476494;28;20196;-82
2022/11/02 05:03:18;;;;;;;3.25;1.13;;;;;;;10.60;51.20;100607.72;10469859;28;20661;-82
2022/11/02 05:08:42;;;;;;;9.35;1.35;;;;;;;10.74;50.26;100604.75;10469821;28;20199;-82
2022/11/02 05:14:05;;;;;;;8.35;1.60;;;;;;;11.07;49.14;100605.94;10483098;28;20191;-82
2022/11/02 05:19:27;;;;;;;3.97;0.90;;;;;;;10.55;49.83;100627.59;10481516;28;20195;-82
2022/11/02 05:24:50;;;;;;;6.33;1.37;;;;;;;10.21;51.14;100633.94;10470243;28;20310;-81
2022/11/02 05:30:12;;;;;;;8.50;1.20;;;;;;;10.01;51.27;100626.09;10484512;28;20538;-84
2022/11/02 05:35:34;;;;;;;7.32;1.48;;;;;;;10.44;49.96;100629.88;10515714;28;20233;-83
2022/11/02 05:40:58;;;;;;;7.53;1.00;;;;;;;10.98;49.22;100640.94;10484031;28;20194;-84
2022/11/02 05:46:20;;;;;;;4.93;0.82;;;;;;;9.98;51.09;100632.38;10517680;28;20222;-85
2022/11/02 05:51:42;;;;;;;8.47;1.43;;;;;;;10.69;49.50;100641.59;10514370;28;20264;-84
2022/11/02 05:57:05;;;;;;;6.93;1.23;;;;;;;10.67;50.19;100656.00;10487053;28;20260;-82
2022/11/02 06:02:27;;;;;;;12.20;1.40;;;;;;;10.61;49.60;100653.66;10501874;28;20191;-82
2022/11/02 06:07:49;;;;;;;6.57;1.53;;;;;;;10.20;50.91;100660.44;10472823;28;20223;-83
2022/11/02 06:13:11;;;;;;;6.67;1.10;;;;;;;10.65;49.82;100671.56;10514288;28;20194;-83
2022/11/02 06:18:33;;;;;;;5.65;1.27;;;;;;;10.36;50.17;100681.41;10527457;28;20221;-81
2022/11/02 06:23:57;;;;;;;6.53;1.92;;;;;;;9.95;51.53;100692.13;10527173;28;20190;-83
2022/11/02 06:29:19;;;;;;;7.53;1.30;;;;;;;10.05;51.03;100695.50;10528958;28;20541;-82
2022/11/02 06:34:41;;;;;;;4.53;1.27;;;;;;;10.11;50.52;100708.31;10484583;28;20240;-82
2022/11/02 06:40:04;;;;;;;10.70;1.83;;;;;;;10.92;48.73;100707.97;10475184;28;20198;-83
2022/11/02 06:45:26;;;;;;;10.52;1.42;;;;;;;10.27;49.73;100727.59;10520227;28;20250;-82
2022/11/02 06:50:48;;;;;;;6.80;1.13;;;;;;;10.65;48.64;100739.22;10491491;28;20256;-83
2022/11/02 06:56:11;;;;;;;9.52;1.85;;;;;;;10.88;48.55;100758.53;10478700;28;20194;-83
2022/11/02 07:01:33;;;;;;;9.87;1.47;;;;;;;9.99;50.98;100774.81;10492616;28;20233;-82
2022/11/02 07:06:56;;;;;;;4.97;0.90;;;;;;;10.66;49.15;100771.91;10505473;28;20250;-83
2022/11/02 07:12:18;;;;;;;5.03;1.20;;;;;;;10.21;49.68;100786.06;10507948;28;20253;-83
2022/11/02 07:17:40;;;;;;;7.40;1.23;;;;;;;9.99;50.56;100806.63;10476198;28;20248;-80
2022/11/02 07:23:02;;;;;;;6.60;1.15;;;;;;;10.16;50.23;100822.84;10538602;28;20257;-79
2022/11/02 07:28:24;;;;;;;7.45;1.20;;;;;;;11.03;48.28;100810.00;10459293;28;20215;-80
2022/11/02 07:33:46;;;;;;;7.80;1.20;;;;;;;10.68;48.90;100823.16;10500114;28;20195;-80
2022/11/02 07:39:09;;;;;;;7.03;1.13;;;;;;;10.64;48.89;100839.06;10529499;28;20207;-81
2022/11/02 07:44:31;;;;;;;9.30;1.40;;;;;;;10.13;49.88;100848.81;10504415;28;20234;-80
2022/11/02 07:49:53;;;;;;;5.83;1.03;;;;;;;10.92;48.01;100857.44;10497332;28;20195;-82
2022/11/02 07:55:17;;;;;;;5.50;1.07;;;;;;;10.27;49.76;100863.66;10510600;28;20221;-80
2022/11/02 08:00:42;;;;;;;9.70;1.27;;;;;;;10.73;47.87;100868.09;10497925;28;20199;-79
2022/11/02 08:06:04;;;;;;;6.90;1.00;;;;;;;11.11;46.59;100874.91;10485937;28;20259;-79
2022/11/02 08:11:26;;;;;;;6.97;1.20;;;;;;;11.26;46.28;100880.13;10501443;28;20217;-80
2022/11/02 08:16:51;;;;;;;7.75;1.38;;;;;;;11.56;46.22;100888.88;10516697;28;20195;-80
2022/11/02 08:22:13;;;;;;;6.97;1.33;;;;;;;10.70;48.26;100900.59;10488502;28;20272;-80
2022/11/02 08:27:35;;;;;;;8.38;1.25;;;;;;;10.62;48.03;100898.56;10525855;28;20544;-79
2022/11/02 08:33:09;;;;;;;7.77;1.20;;;;;;;11.34;46.89;100909.53;10534829;28;20595;-79
2022/11/02 08:38:32;;;;;;;6.03;1.33;;;;;;;11.55;45.75;100918.25;10508255;28;20371;-80
2022/11/02 08:43:54;;;;;;;13.73;1.90;;;;;;;10.91;48.14;100934.72;10504305;28;20220;-80
2022/11/02 08:49:17;;;;;;;6.50;1.10;;;;;;;11.16;47.00;100934.03;10487312;28;21116;-80
2022/11/02 08:54:39;;;;;;;3.90;1.00;;;;;;;10.94;47.36;100934.09;10519375;28;20187;-79
2022/11/02 09:00:02;;;;;;;8.05;1.30;;;;;;;11.22;46.97;100941.19;10488413;28;20195;-80
2022/11/02 09:05:24;;;;;;;8.80;1.20;;;;;;;10.70;47.55;100958.97;10455715;28;20215;-81
2022/11/02 09:10:49;;;;;;;5.70;0.80;;;;;;;10.54;46.67;100969.78;10508376;28;20461;-81
2022/11/02 09:16:11;;;;;;;6.40;1.07;;;;;;;11.38;45.51;100966.16;10495801;28;21247;-81
2022/11/02 09:21:33;;;;;;;5.97;1.52;;;;;;;11.89;44.36;100966.34;10481403;28;20491;-81
2022/11/02 09:26:55;;;;;;;10.60;1.45;;;;;;;11.56;44.10;100976.38;10536157;28;20214;-83
2022/11/02 09:32:17;;;;;;;5.27;1.40;;;;;;;11.66;43.38;100973.25;10477070;28;20190;-81
2022/11/02 09:37:43;;;;;;;7.38;1.73;;;;;;;11.39;45.22;100979.09;10476860;28;20245;-82
2022/11/02 09:43:17;;;;;;;6.70;1.58;;;;;;;11.33;44.60;100983.25;10515924;28;20253;-82
2022/11/02 09:48:42;;;;;;;7.28;1.23;;;;;;;12.01;43.44;100995.94;10456888;28;20211;-81
2022/11/02 09:54:07;;;;;;;11.07;1.50;;;;;;;11.32;44.06;101001.34;10477286;28;20182;-82
2022/11/02 09:59:29;;;;;;;6.27;1.17;;;;;;;11.53;43.78;101002.44;10523381;28;20198;-83
2022/11/02 10:05:13;;;;;;;8.23;1.27;;;;;;;11.45;44.08;101017.34;10486268;28;20215;-83
2022/11/02 10:10:52;;;;;;;13.40;1.80;;;;;;;11.93;42.52;101017.38;10519530;28;20244;-81
2022/11/02 10:16:20;;;;;;;9.68;1.60;;;;;;;11.26;43.69;100995.81;10520162;28;20252;-82
2022/11/02 10:21:45;;;;;;;6.40;1.07;;;;;;;11.38;43.59;100997.19;10506176;28;20473;-83
2022/11/02 10:27:28;;;;;;;8.00;1.60;;;;;;;11.74;43.02;100997.84;10492221;28;20562;-83
2022/11/02 10:32:51;;;;;;;8.50;1.43;;;;;;;11.99;42.45;101014.03;10492311;28;20255;-83
2022/11/02 10:38:26;;;;;;;5.73;0.83;;;;;;;11.65;42.68;101002.66;10494937;28;20190;-83
2022/11/02 10:44:10;;;;;;;7.07;1.08;;;;;;;12.51;41.50;101002.81;10506853;28;20239;-81
2022/11/02 10:50:06;;;;;;;5.90;0.70;;;;;;;12.02;41.54;101017.38;10477746;28;20273;-82
2022/11/02 10:55:48;;;;;;;9.75;1.50;;;;;;;12.34;40.80;101017.78;10468780;28;20203;-83
2022/11/02 11:01:12;;;;;;;6.57;1.38;;;;;;;12.46;41.08;101025.63;10479686;28;20207;-83
2022/11/02 11:06:39;;;;;;;4.13;0.70;;;;;;;11.79;40.34;101022.31;10484793;28;20699;-83
2022/11/02 11:12:04;;;;;;;4.20;0.85;;;;;;;12.78;38.26;101021.44;10516522;28;20199;-83
2022/11/02 11:17:27;;;;;;;5.65;1.17;;;;;;;12.18;39.15;101022.25;10493241;28;20191;-84
2022/11/02 11:23:08;;;;;;;5.95;0.90;;;;;;;12.12;38.53;101040.53;10490413;28;20217;-83
2022/11/02 11:28:41;;;;;;;3.33;1.10;;;;;;;12.41;38.53;101039.09;10500886;28;20214;-82
2022/11/02 11:34:03;;;;;;;6.10;0.88;;;;;;;13.11;37.87;101041.56;10506100;28;20199;-83
2022/11/02 11:39:26;;;;;;;6.80;1.27;;;;;;;12.46;38.51;101036.94;10486264;28;20529;-81
2022/11/02 11:44:55;;;;;;;5.60;1.25;;;;;;;12.50;38.29;101045.59;10504010;28;20187;-81
2022/11/02 11:50:18;;;;;;;4.43;0.68;;;;;;;13.90;35.90;101029.66;10524187;28;20196;-82
2022/11/02 11:55:48;;;;;;;9.55;0.98;;;;;;;11.96;38.26;101045.81;10489312;28;20187;-81
2022/11/02 12:01:19;;;;;;;8.18;1.13;;;;;;;13.13;36.66;101033.56;10521620;28;20500;-82
2022/11/02 12:07:11;;;;;;;5.73;0.90;;;;;;;13.32;36.20;101036.88;10490792;28;20227;-82
2022/11/02 12:12:47;;;;;;;6.82;0.77;;;;;;;13.00;35.94;101028.94;10482083;28;20250;-83
2022/11/02 12:18:21;;;;;;;8.02;1.35;;;;;;;12.89;36.70;101024.78;10489233;28;20238;-81
2022/11/02 12:23:49;;;;;;;5.18;1.05;;;;;;;13.27;36.25;101017.25;10510732;28;20191;-82
2022/11/02 12:29:36;;;;;;;7.22;1.33;;;;;;;14.00;34.33;101005.78;10495788;28;20318;-81
2022/11/02 12:35:41;;;;;;;7.45;1.27;;;;;;;13.42;35.41;101015.03;10519375;28;20651;-83
2022/11/02 12:41:06;;;;;;;3.85;1.02;;;;;;;13.18;35.35;101007.91;10465806;28;20224;-82
2022/11/02 12:46:58;;;;;;;5.32;0.77;;;;;;;12.36;36.16;101014.66;10473917;28;20230;-81
2022/11/02 12:52:46;;;;;;;3.75;0.98;;;;;;;13.20;35.69;101010.44;10485901;28;20199;-82
2022/11/02 12:58:19;;;;;;;4.47;0.93;;;;;;;13.57;35.17;101005.97;10536424;28;20190;-81
2022/11/02 13:03:50;;;;;;;7.90;1.35;;;;;;;13.39;35.34;101008.06;10518928;28;20700;-81
2022/11/02 13:09:38;;;;;;;8.40;1.00;;;;;;;13.27;35.71;101007.94;10487739;28;20250;-79
2022/11/02 13:15:01;;;;;;;9.95;1.23;;;;;;;13.22;35.34;101000.44;10526645;28;20199;-79
2022/11/02 13:20:41;;;;;;;4.28;1.05;;;;;;;13.05;36.60;101003.28;10499828;28;20256;-82
2022/11/02 13:26:12;;;;;;;8.00;1.23;;;;;;;13.32;35.97;100997.22;10457277;28;20227;-82
2022/11/02 13:31:43;;;;;;;8.90;1.27;;;;;;;13.57;35.88;101003.13;10498279;28;20195;-81
2022/11/02 13:37:10;;;;;;;5.03;1.17;;;;;;;13.09;36.88;101004.28;10534176;28;20479;-81
2022/11/02 13:42:51;;;;;;;8.63;1.10;;;;;;;13.60;35.40;100993.97;10536319;28;20202;-82
2022/11/02 13:48:24;;;;;;;7.20;1.65;;;;;;;12.64;36.97;100993.34;10524591;28;20264;-81
2022/11/02 13:54:20;;;;;;;3.03;0.65;;;;;;;12.55;38.35;100992.53;10475940;28;20203;-82
2022/11/02 13:59:43;;;;;;;6.78;1.75;;;;;;;12.86;37.68;101000.00;10513765;28;20239;-81
2022/11/02 14:05:06;;;;;;;9.13;1.33;;;;;;;13.48;36.79;100999.50;10484133;28;20222;-81
2022/11/02 14:10:30;;;;;;;6.80;0.90;;;;;;;12.98;37.74;100992.47;10506566;28;20268;-81
2022/11/02 14:15:52;;;;;;;10.27;1.38;;;;;;;13.11;37.78;100995.44;10489616;28;20219;-81
2022/11/02 14:21:40;;;;;;;7.72;1.70;;;;;;;12.87;37.24;100994.00;10492732;28;20203;-82
2022/11/02 14:27:03;;;;;;;9.75;1.13;;;;;;;13.00;37.15;101004.31;10517006;28;20271;-84
2022/11/02 14:32:48;;;;;;;12.60;1.10;;;;;;;12.72;38.66;100993.69;10531757;28;20244;-84
2022/11/02 14:38:27;;;;;;;8.07;1.08;;;;;;;12.34;39.65;100995.16;10493638;28;20265;-82
2022/11/02 14:44:16;;;;;;;6.50;1.20;;;;;;;12.26;40.23;100992.31;10482130;28;20591;-81
2022/11/02 14:49:50;;;;;;;11.43;1.87;;;;;;;12.84;39.06;100976.84;10491783;28;20558;-83
2022/11/02 14:55:24;;;;;;;9.52;1.45;;;;;;;12.77;39.78;100973.72;10507241;28;20203;-81
2022/11/02 15:00:46;;;;;;;7.45;1.48;;;;;;;12.97;39.89;100973.00;10479682;28;20554;-81
2022/11/02 15:06:10;;;;;;;9.18;1.02;;;;;;;13.50;38.72;100966.03;10480064;28;20257;-82
2022/11/02 15:11:49;;;;;;;7.80;1.20;;;;;;;13.37;39.10;100954.59;10501080;28;20213;-82
2022/11/02 15:17:14;;;;;;;7.88;1.60;;;;;;;12.64;40.70;100959.41;10478553;28;20200;-81
2022/11/02 15:22:54;;;;;;;11.65;3.85;;;;;;;12.63;40.64;100957.78;10496080;28;20483;-82
2022/11/02 15:28:21;;;;;;;10.95;1.77;;;;;;;12.86;40.40;100946.25;10461005;28;20266;-81
2022/11/02 15:33:45;;;;;;;8.25;1.42;;;;;;;12.98;40.60;100940.72;10481928;28;20472;-80
2022/11/02 15:39:09;;;;;;;6.95;1.80;;;;;;;12.74;40.84;100944.09;10469893;28;20195;-81
2022/11/02 15:44:47;;;;;;;8.63;1.37;;;;;;;12.51;41.49;100946.28;10482651;28;20233;-83
2022/11/02 15:50:37;;;;;;;9.35;2.38;;;;;;;12.68;41.16;100934.94;10467019;28;20243;-82
2022/11/02 15:56:08;;;;;;;7.83;1.57;;;;;;;12.86;41.13;100940.59;10472408;28;20223;-84
2022/11/02 16:01:30;;;;;;;5.45;1.25;;;;;;;12.79;40.84;100926.94;10458520;28;20227;-78
2022/11/02 16:06:53;;;;;;;7.68;1.52;;;;;;;12.53;41.45;100924.16;10478839;28;20305;-79
2022/11/02 16:12:20;;;;;;;5.72;1.50;;;;;;;12.16;42.08;100931.31;10473860;28;20226;-79
2022/11/02 16:17:47;;;;;;;9.98;2.08;;;;;;;12.05;42.45;100929.97;10440994;28;20230;-79
2022/11/02 16:23:15;;;;;;;18.42;10.30;;;;;;;12.27;42.11;100931.78;10477529;28;20257;-80
2022/11/02 16:28:37;;;;;;;17.83;4.70;;;;;;;11.94;43.07;100940.75;10448642;28;20272;-84
2022/11/02 16:34:02;;;;;;;10.57;4.35;;;;;;;12.04;43.06;100947.25;10484197;28;20891;-83
2022/11/02 16:39:30;;;;;;;11.70;3.10;;;;;;;12.05;43.20;100940.44;10454807;28;20289;-85
2022/11/02 16:45:00;;;;;;;7.63;2.00;;;;;;;11.66;43.41;100933.72;10467184;28;20215;-83
2022/11/02 16:50:24;;;;;;;8.97;2.43;;;;;;;11.67;43.81;100928.91;10491077;28;20324;-84
2022/11/02 16:55:47;;;;;;;7.13;1.63;;;;;;;11.24;44.69;100938.88;10510853;28;20230;-78
2022/11/02 17:01:20;;;;;;;10.85;2.30;;;;;;;11.11;44.39;100942.63;10481185;28;20801;-77
2022/11/02 17:06:42;;;;;;;13.45;2.47;;;;;;;11.15;44.18;100940.81;10517737;28;20257;-81
2022/11/02 17:12:08;;;;;;;7.43;1.57;;;;;;;11.08;45.21;100937.66;10488721;28;20880;-83
2022/11/02 17:17:36;;;;;;;6.80;2.17;;;;;;;11.24;44.24;100932.38;10492702;28;20227;-83
2022/11/02 17:22:59;;;;;;;6.63;1.60;;;;;;;11.22;43.56;100935.53;10501821;28;20234;-83
2022/11/02 17:28:33;;;;;;;12.17;2.10;;;;;;;11.00;44.40;100938.44;10504689;28;20308;-82
2022/11/02 17:33:59;;;;;;;5.80;1.60;;;;;;;10.61;45.05;100939.19;10504197;28;20243;-81
2022/11/02 17:39:21;;;;;;;7.67;2.50;;;;;;;10.87;43.48;100933.72;10455065;28;20641;-83
2022/11/02 17:44:44;;;;;;;6.03;1.63;;;;;;;10.61;44.48;100939.19;10366051;28;20604;-82
2022/11/02 17:50:07;;;;;;;10.43;2.30;;;;;;;10.87;43.73;100933.72;10363458;28;20302;-80
2022/11/02 17:55:32;;;;;;;11.43;2.60;;;;;;;10.86;43.35;100932.03;10363072;28;20313;-82
2022/11/02 18:00:54;;;;;;;12.00;2.93;;;;;;;10.91;42.91;100918.66;10383075;28;20220;-81
2022/11/02 18:06:16;;;;;;;6.93;1.97;;;;;;;10.35;44.17;100922.06;10365518;28;20264;-83
2022/11/02 18:11:39;;;;;;;7.03;1.80;;;;;;;10.62;43.43;100931.56;10354905;28;20348;-81
2022/11/02 18:17:01;;;;;;;9.77;2.58;;;;;;;10.65;44.06;100922.47;10360390;28;20220;-83
2022/11/02 18:22:24;;;;;;;6.67;1.63;;;;;;;10.33;43.46;100918.72;10365418;28;20271;-83
2022/11/02 18:27:46;;;;;;;6.07;1.57;;;;;;;10.87;42.32;100917.63;10362546;28;20862;-83
2022/11/02 18:33:09;;;;;;;10.17;2.73;;;;;;;10.54;43.49;100913.41;10365663;28;20597;-82
2022/11/02 18:38:31;;;;;;;4.83;2.10;;;;;;;10.83;42.63;100898.84;10362887;28;20267;-79
2022/11/02 18:43:55;;;;;;;7.18;2.33;;;;;;;10.61;42.42;100901.72;10347683;28;20233;-83
2022/11/02 18:49:17;;;;;;;5.20;1.57;;;;;;;10.40;42.86;100884.47;10373083;28;20637;-81
2022/11/02 18:54:39;;;;;;;7.83;1.97;;;;;;;10.54;42.64;100877.59;10375337;28;20224;-81
2022/11/02 19:00:02;;;;;;;4.70;1.40;;;;;;;10.57;43.08;100874.13;10357987;28;20605;-79
2022/11/02 19:10:56;;;;;;;6.37;2.17;;;;;;;10.52;43.28;100871.47;10387083;28;20240;-81
2022/11/02 19:16:18;;;;;;;9.17;1.60;;;;;;;10.48;42.94;100873.25;10391783;28;20228;-84
2022/11/02 19:21:41;;;;;;;5.37;1.50;;;;;;;10.03;44.11;100872.44;10387757;28;20306;-79
2022/11/02 19:27:03;;;;;;;7.67;1.87;;;;;;;10.25;44.05;100859.50;10366802;28;20578;-83
2022/11/02 19:32:25;;;;;;;5.03;1.57;;;;;;;10.20;43.48;100858.47;10369907;28;20233;-85
2022/11/02 19:37:47;;;;;;;8.93;2.10;;;;;;;10.24;43.67;100855.84;10363184;28;20227;-83
2022/11/02 19:43:09;;;;;;;12.37;1.73;;;;;;;10.10;43.47;100849.44;10375138;28;20771;-85
2022/11/02 19:48:34;;;;;;;5.50;1.70;;;;;;;10.38;43.39;100839.69;10364130;28;20315;-85
2022/11/02 19:53:58;;;;;;;7.68;2.28;;;;;;;9.97;44.71;100837.09;10389169;28;20283;-79
2022/11/02 19:59:21;;;;;;;9.33;2.40;;;;;;;10.03;43.97;100826.56;10362375;28;20236;-79
2022/11/02 20:04:44;;;;;;;9.23;2.37;;;;;;;9.88;44.73;100815.66;10362924;28;20252;-78
2022/11/02 20:10:06;;;;;;;8.02;3.15;;;;;;;9.91;44.39;100820.66;10363478;28;20252;-78
2022/11/02 20:15:28;;;;;;;7.40;1.90;;;;;;;10.15;44.44;100809.91;10363099;28;20295;-79
2022/11/02 20:20:51;;;;;;;8.43;1.80;;;;;;;9.90;45.18;100802.09;10381375;28;20229;-79
2022/11/02 20:26:17;;;;;;;8.63;1.50;;;;;;;10.14;45.16;100796.97;10380385;28;20568;-78
2022/11/02 20:31:39;;;;;;;8.45;1.98;;;;;;;10.34;44.08;100790.78;10363356;28;20267;-79
2022/11/02 20:37:01;;;;;;;8.10;1.40;;;;;;;10.08;44.69;100786.97;10361999;28;20205;-78
2022/11/02 20:42:24;;;;;;;6.77;1.30;;;;;;;9.91;44.92;100775.63;10361490;28;20225;-78
2022/11/02 20:47:46;;;;;;;8.97;1.50;;;;;;;10.23;44.56;100766.84;10399448;28;20298;-78
2022/11/02 20:53:08;;;;;;;4.83;1.03;;;;;;;10.41;43.68;100771.44;10363747;28;20225;-78
2022/11/02 20:58:30;;;;;;;9.73;1.40;;;;;;;10.61;43.73;100760.75;10377735;28;20232;-78
2022/11/02 21:03:53;;;;;;;8.37;1.70;;;;;;;9.95;44.97;100754.09;10379151;28;20253;-78
2022/11/02 21:09:15;;;;;;;8.90;1.47;;;;;;;10.56;43.61;100765.34;10366902;28;20256;-78
2022/11/02 21:14:38;;;;;;;4.78;1.25;;;;;;;10.11;44.77;100760.97;10377313;28;20217;-78
2022/11/02 21:20:00;;;;;;;4.70;1.00;;;;;;;9.91;45.37;100753.91;10364982;28;20578;-78
2022/11/02 21:25:22;;;;;;;7.97;1.27;;;;;;;10.21;44.40;100755.06;10365580;28;20245;-78
2022/11/02 21:30:44;;;;;;;5.07;1.37;;;;;;;9.96;45.34;100744.50;10360227;28;20291;-78
2022/11/02 21:36:07;;;;;;;7.80;1.77;;;;;;;10.07;44.70;100743.88;10391407;28;20225;-77
2022/11/02 21:41:31;;;;;;;9.33;1.87;;;;;;;10.36;44.37;100726.47;10361170;28;20232;-78
2022/11/02 21:46:53;;;;;;;7.13;1.30;;;;;;;10.04;44.93;100729.66;10381841;28;20291;-78
2022/11/02 21:52:15;;;;;;;5.22;1.40;;;;;;;10.34;44.26;100728.78;10399180;28;20209;-78
2022/11/02 21:57:37;;;;;;;7.17;1.40;;;;;;;10.35;43.87;100724.00;10364744;28;20228;-78
2022/11/02 22:02:59;;;;;;;6.73;1.67;;;;;;;9.78;45.56;100730.31;10367701;28;20225;-78
2022/11/02 22:08:43;;;;;;;6.00;1.37;;;;;;;10.28;44.90;100713.19;10352464;28;20283;-81
2022/11/02 22:14:04;;;;;;;9.00;1.30;;;;;;;9.54;46.50;100710.03;10385369;28;20239;-84
2022/11/02 22:19:26;;;;;;;6.10;1.60;;;;;;;10.01;45.49;100714.22;10368159;28;20605;-84
2022/11/02 22:24:48;;;;;;;8.32;1.20;;;;;;;10.10;45.09;100705.81;10391038;28;20232;-83
2022/11/02 22:30:10;;;;;;;6.80;1.77;;;;;;;10.11;45.22;100710.28;10364339;28;20244;-82
2022/11/02 22:35:34;;;;;;;6.27;1.17;;;;;;;10.10;45.44;100686.09;10363959;28;20278;-85
2022/11/02 22:41:00;;;;;;;5.80;1.40;;;;;;;9.79;46.49;100684.09;10365392;28;20271;-85
2022/11/02 22:46:24;;;;;;;10.52;1.35;;;;;;;9.42;47.44;100661.97;10397145;28;20229;-82
2022/11/02 22:51:48;;;;;;;4.43;1.27;;;;;;;9.82;46.26;100668.56;10376811;28;20729;-83
2022/11/02 22:57:10;;;;;;;6.22;0.93;;;;;;;9.89;45.83;100652.03;10366794;28;20299;-83
2022/11/02 23:02:32;;;;;;;8.38;1.60;;;;;;;10.29;45.19;100640.78;10363619;28;20216;-84
2022/11/02 23:07:54;;;;;;;7.17;1.20;;;;;;;9.68;46.34;100634.03;10394380;28;20311;-83
2022/11/02 23:13:16;;;;;;;6.75;1.60;;;;;;;9.70;46.36;100617.66;10373820;28;20247;-84
2022/11/02 23:19:18;;;;;;;6.17;1.47;;;;;;;9.64;46.59;100614.16;10379028;28;20322;-82
2022/11/02 23:41:24;;;;;;;10.30;1.20;;;;;;;9.77;46.25;100596.34;10379579;28;20221;-83
2022/11/02 23:46:50;;;;;;;7.57;1.40;;;;;;;9.37;47.66;100592.63;10403984;28;20629;-82
2022/11/02 23:57:53;;;;;;;8.13;1.60;;;;;;;10.08;45.63;100578.56;10384381;28;20263;-83
